sensor_id;sensor_type;location;lat;lon;timestamp;P1;P2;P0
72467;PMS3003;60626;43.582;1.470;2022-09-03T00:01:05;3.00;3.00;2.75
72467;PMS3003;60626;43.582;1.470;2022-09-03T00:03:41;5.00;4.25;4.00
72467;PMS3003;60626;43.582;1.470;2022-09-03T00:06:13;5.00;3.25;2.50
72467;PMS3003;60626;43.582;1.470;2022-09-03T00:08:44;3.00;3.00;2.00
72467;PMS3003;60626;43.582;1.470;2022-09-03T00:13:56;5.00;4.00;3.00
72467;PMS3003;60626;43.582;1.470;2022-09-03T00:16:30;7.00;3.75;3.75
72467;PMS3003;60626;43.582;1.470;2022-09-03T00:19:06;3.00;3.00;3.00
72467;PMS3003;60626;43.582;1.470;2022-09-03T00:21:38;4.50;4.50;4.00
72467;PMS3003;60626;43.582;1.470;2022-09-03T00:24:10;3.00;3.00;3.00
72467;PMS3003;60626;43.582;1.470;2022-09-03T00:26:41;3.50;3.50;3.25
72467;PMS3003;60626;43.582;1.470;2022-09-03T00:29:16;3.00;3.00;3.00
72467;PMS3003;60626;43.582;1.470;2022-09-03T00:31:55;4.00;4.00;3.25
72467;PMS3003;60626;43.582;1.470;2022-09-03T00:34:31;4.25;4.25;3.00
72467;PMS3003;60626;43.582;1.470;2022-09-03T00:37:04;7.00;6.25;4.00
72467;PMS3003;60626;43.582;1.470;2022-09-03T00:39:39;4.75;4.75;4.00
72467;PMS3003;60626;43.582;1.470;2022-09-03T00:44:47;5.00;5.00;4.75
72467;PMS3003;60626;43.582;1.470;2022-09-03T01:07:19;4.00;4.00;3.75
72467;PMS3003;60626;43.582;1.470;2022-09-03T01:13:10;2.50;2.50;2.25
72467;PMS3003;60626;43.582;1.470;2022-09-03T01:24:18;3.00;3.00;3.00
72467;PMS3003;60626;43.582;1.470;2022-09-03T01:48:29;3.25;3.00;2.50
72467;PMS3003;60626;43.582;1.470;2022-09-03T01:51:11;3.75;3.75;3.00
72467;PMS3003;60626;43.582;1.470;2022-09-03T01:59:58;4.00;4.00;3.00
72467;PMS3003;60626;43.582;1.470;2022-09-03T02:02:29;5.00;3.25;3.25
72467;PMS3003;60626;43.582;1.470;2022-09-03T02:04:58;5.00;4.00;3.75
72467;PMS3003;60626;43.582;1.470;2022-09-03T02:07:31;3.00;3.00;2.75
72467;PMS3003;60626;43.582;1.470;2022-09-03T02:10:00;4.50;4.00;3.25
72467;PMS3003;60626;43.582;1.470;2022-09-03T02:12:30;4.00;4.00;3.50
72467;PMS3003;60626;43.582;1.470;2022-09-03T02:15:00;6.75;5.75;4.00
72467;PMS3003;60626;43.582;1.470;2022-09-03T02:17:30;6.25;4.75;4.00
72467;PMS3003;60626;43.582;1.470;2022-09-03T02:20:00;3.75;3.75;3.00
72467;PMS3003;60626;43.582;1.470;2022-09-03T02:22:31;4.50;4.50;3.25
72467;PMS3003;60626;43.582;1.470;2022-09-03T02:24:59;4.00;4.00;3.00
72467;PMS3003;60626;43.582;1.470;2022-09-03T02:27:26;3.00;3.00;2.75
72467;PMS3003;60626;43.582;1.470;2022-09-03T02:29:53;5.75;3.00;2.75
72467;PMS3003;60626;43.582;1.470;2022-09-03T02:32:20;3.50;3.50;3.00
72467;PMS3003;60626;43.582;1.470;2022-09-03T02:34:47;2.00;2.00;2.00
72467;PMS3003;60626;43.582;1.470;2022-09-03T02:37:14;4.75;4.75;3.00
72467;PMS3003;60626;43.582;1.470;2022-09-03T02:39:43;3.50;3.00;3.00
72467;PMS3003;60626;43.582;1.470;2022-09-03T02:42:11;5.00;5.00;3.75
72467;PMS3003;60626;43.582;1.470;2022-09-03T02:44:40;2.50;2.50;2.00
72467;PMS3003;60626;43.582;1.470;2022-09-03T02:47:12;5.00;3.25;3.00
72467;PMS3003;60626;43.582;1.470;2022-09-03T02:49:40;3.00;3.00;2.50
72467;PMS3003;60626;43.582;1.470;2022-09-03T02:52:08;3.00;3.00;2.00
72467;PMS3003;60626;43.582;1.470;2022-09-03T02:54:37;5.00;3.25;2.75
72467;PMS3003;60626;43.582;1.470;2022-09-03T02:57:06;2.50;2.50;2.00
72467;PMS3003;60626;43.582;1.470;2022-09-03T02:59:34;4.50;4.50;3.50
72467;PMS3003;60626;43.582;1.470;2022-09-03T03:02:01;4.25;4.25;3.75
72467;PMS3003;60626;43.582;1.470;2022-09-03T03:04:29;4.00;4.00;3.75
72467;PMS3003;60626;43.582;1.470;2022-09-03T03:06:57;5.50;4.25;4.00
72467;PMS3003;60626;43.582;1.470;2022-09-03T03:09:24;5.75;4.75;4.00
72467;PMS3003;60626;43.582;1.470;2022-09-03T03:11:51;5.00;5.00;3.25
72467;PMS3003;60626;43.582;1.470;2022-09-03T03:14:20;4.00;4.00;3.50
72467;PMS3003;60626;43.582;1.470;2022-09-03T03:16:48;6.00;6.00;4.00
72467;PMS3003;60626;43.582;1.470;2022-09-03T03:19:15;5.25;4.00;3.25
72467;PMS3003;60626;43.582;1.470;2022-09-03T03:21:42;4.50;4.50;3.50
72467;PMS3003;60626;43.582;1.470;2022-09-03T03:24:09;6.75;4.25;4.00
72467;PMS3003;60626;43.582;1.470;2022-09-03T03:26:35;5.00;5.00;4.00
72467;PMS3003;60626;43.582;1.470;2022-09-03T03:29:02;5.75;4.25;4.00
72467;PMS3003;60626;43.582;1.470;2022-09-03T03:31:33;4.75;4.00;3.50
72467;PMS3003;60626;43.582;1.470;2022-09-03T03:34:00;5.00;5.00;4.00
72467;PMS3003;60626;43.582;1.470;2022-09-03T03:36:30;7.00;4.25;3.50
72467;PMS3003;60626;43.582;1.470;2022-09-03T03:38:58;5.00;5.00;4.00
72467;PMS3003;60626;43.582;1.470;2022-09-03T03:41:30;4.00;4.00;3.50
72467;PMS3003;60626;43.582;1.470;2022-09-03T03:43:59;3.75;3.50;3.00
72467;PMS3003;60626;43.582;1.470;2022-09-03T03:46:28;4.00;4.00;4.00
72467;PMS3003;60626;43.582;1.470;2022-09-03T03:48:57;6.00;4.75;4.00
72467;PMS3003;60626;43.582;1.470;2022-09-03T03:51:25;5.75;5.75;5.00
72467;PMS3003;60626;43.582;1.470;2022-09-03T03:53:52;5.00;5.00;4.00
72467;PMS3003;60626;43.582;1.470;2022-09-03T03:56:21;9.00;5.00;4.00
72467;PMS3003;60626;43.582;1.470;2022-09-03T03:58:48;5.00;5.00;5.00
72467;PMS3003;60626;43.582;1.470;2022-09-03T04:01:16;4.25;4.25;4.00
72467;PMS3003;60626;43.582;1.470;2022-09-03T04:03:44;6.50;5.00;4.50
72467;PMS3003;60626;43.582;1.470;2022-09-03T04:06:12;4.25;4.25;3.25
72467;PMS3003;60626;43.582;1.470;2022-09-03T04:08:40;4.00;4.00;3.75
72467;PMS3003;60626;43.582;1.470;2022-09-03T04:11:10;4.00;4.00;3.00
72467;PMS3003;60626;43.582;1.470;2022-09-03T04:13:39;6.00;6.00;3.50
72467;PMS3003;60626;43.582;1.470;2022-09-03T04:18:35;7.00;5.50;4.25
72467;PMS3003;60626;43.582;1.470;2022-09-03T04:23:34;5.00;5.00;4.25
72467;PMS3003;60626;43.582;1.470;2022-09-03T04:26:02;9.50;5.25;4.50
72467;PMS3003;60626;43.582;1.470;2022-09-03T04:28:30;5.00;5.00;4.00
72467;PMS3003;60626;43.582;1.470;2022-09-03T04:31:04;6.75;5.25;4.75
72467;PMS3003;60626;43.582;1.470;2022-09-03T04:33:33;5.75;4.50;3.75
72467;PMS3003;60626;43.582;1.470;2022-09-03T04:36:02;5.25;5.25;5.00
72467;PMS3003;60626;43.582;1.470;2022-09-03T04:38:38;4.25;4.00;4.00
72467;PMS3003;60626;43.582;1.470;2022-09-03T04:41:07;5.00;3.00;3.00
72467;PMS3003;60626;43.582;1.470;2022-09-03T04:43:36;4.75;4.75;4.00
72467;PMS3003;60626;43.582;1.470;2022-09-03T04:46:05;5.75;4.75;4.00
72467;PMS3003;60626;43.582;1.470;2022-09-03T04:48:42;4.75;4.75;4.00
72467;PMS3003;60626;43.582;1.470;2022-09-03T04:51:10;4.00;3.75;3.50
72467;PMS3003;60626;43.582;1.470;2022-09-03T04:53:42;5.00;5.00;4.00
72467;PMS3003;60626;43.582;1.470;2022-09-03T04:56:12;5.00;5.00;4.00
72467;PMS3003;60626;43.582;1.470;2022-09-03T04:58:43;5.00;5.00;4.50
72467;PMS3003;60626;43.582;1.470;2022-09-03T05:01:16;4.50;4.50;3.75
72467;PMS3003;60626;43.582;1.470;2022-09-03T05:03:45;4.00;4.00;3.00
72467;PMS3003;60626;43.582;1.470;2022-09-03T05:06:12;4.50;3.25;3.00
72467;PMS3003;60626;43.582;1.470;2022-09-03T05:08:42;5.00;5.00;4.00
72467;PMS3003;60626;43.582;1.470;2022-09-03T05:11:14;4.75;4.75;3.00
72467;PMS3003;60626;43.582;1.470;2022-09-03T05:13:41;4.50;4.50;3.50
72467;PMS3003;60626;43.582;1.470;2022-09-03T05:16:09;6.75;5.00;4.50
72467;PMS3003;60626;43.582;1.470;2022-09-03T05:18:36;5.75;4.25;3.75
72467;PMS3003;60626;43.582;1.470;2022-09-03T05:21:10;4.25;3.75;3.00
72467;PMS3003;60626;43.582;1.470;2022-09-03T05:23:40;7.50;6.25;5.00
72467;PMS3003;60626;43.582;1.470;2022-09-03T05:26:09;4.75;4.75;4.00
72467;PMS3003;60626;43.582;1.470;2022-09-03T05:28:39;5.00;5.00;3.75
72467;PMS3003;60626;43.582;1.470;2022-09-03T05:31:17;5.75;4.75;4.00
72467;PMS3003;60626;43.582;1.470;2022-09-03T05:33:46;4.75;4.75;4.00
72467;PMS3003;60626;43.582;1.470;2022-09-03T05:36:21;8.00;6.75;5.00
72467;PMS3003;60626;43.582;1.470;2022-09-03T05:38:49;5.00;5.00;4.00
72467;PMS3003;60626;43.582;1.470;2022-09-03T05:41:19;6.50;6.50;5.00
72467;PMS3003;60626;43.582;1.470;2022-09-03T05:43:48;5.25;5.25;4.50
72467;PMS3003;60626;43.582;1.470;2022-09-03T05:46:25;7.00;5.75;4.00
72467;PMS3003;60626;43.582;1.470;2022-09-03T05:48:58;6.00;4.25;3.75
72467;PMS3003;60626;43.582;1.470;2022-09-03T05:51:29;5.00;5.00;4.00
72467;PMS3003;60626;43.582;1.470;2022-09-03T05:53:56;4.00;4.00;3.75
72467;PMS3003;60626;43.582;1.470;2022-09-03T05:56:24;4.25;4.25;3.75
72467;PMS3003;60626;43.582;1.470;2022-09-03T05:58:53;6.00;4.50;4.00
72467;PMS3003;60626;43.582;1.470;2022-09-03T06:01:23;4.25;4.25;3.50
72467;PMS3003;60626;43.582;1.470;2022-09-03T06:03:52;5.00;5.00;4.00
72467;PMS3003;60626;43.582;1.470;2022-09-03T06:06:21;6.00;4.50;4.00
72467;PMS3003;60626;43.582;1.470;2022-09-03T06:08:55;5.00;5.00;4.75
72467;PMS3003;60626;43.582;1.470;2022-09-03T06:11:24;5.25;5.25;4.25
72467;PMS3003;60626;43.582;1.470;2022-09-03T06:13:56;4.25;4.25;3.50
72467;PMS3003;60626;43.582;1.470;2022-09-03T06:16:27;6.00;4.25;4.00
72467;PMS3003;60626;43.582;1.470;2022-09-03T06:18:57;7.00;6.25;5.00
72467;PMS3003;60626;43.582;1.470;2022-09-03T06:21:27;7.50;5.00;4.00
72467;PMS3003;60626;43.582;1.470;2022-09-03T06:23:55;6.25;6.25;5.00
72467;PMS3003;60626;43.582;1.470;2022-09-03T06:26:25;6.00;6.00;4.50
72467;PMS3003;60626;43.582;1.470;2022-09-03T06:28:54;7.50;6.00;5.50
72467;PMS3003;60626;43.582;1.470;2022-09-03T06:31:22;6.00;4.00;3.00
72467;PMS3003;60626;43.582;1.470;2022-09-03T06:33:49;9.50;7.00;5.00
72467;PMS3003;60626;43.582;1.470;2022-09-03T06:36:17;5.50;5.50;5.00
72467;PMS3003;60626;43.582;1.470;2022-09-03T06:38:45;6.00;6.00;4.75
72467;PMS3003;60626;43.582;1.470;2022-09-03T06:41:13;7.25;5.50;4.25
72467;PMS3003;60626;43.582;1.470;2022-09-03T06:43:52;4.75;4.75;4.00
72467;PMS3003;60626;43.582;1.470;2022-09-03T06:46:24;8.00;6.75;6.00
72467;PMS3003;60626;43.582;1.470;2022-09-03T06:48:50;10.75;5.75;5.00
72467;PMS3003;60626;43.582;1.470;2022-09-03T06:51:19;6.25;5.25;4.25
72467;PMS3003;60626;43.582;1.470;2022-09-03T06:53:48;4.25;4.25;4.00
72467;PMS3003;60626;43.582;1.470;2022-09-03T06:56:18;9.00;6.00;5.00
72467;PMS3003;60626;43.582;1.470;2022-09-03T06:58:52;7.25;6.50;5.25
72467;PMS3003;60626;43.582;1.470;2022-09-03T07:01:26;7.50;6.75;5.00
72467;PMS3003;60626;43.582;1.470;2022-09-03T07:04:00;6.50;6.00;5.25
72467;PMS3003;60626;43.582;1.470;2022-09-03T07:06:30;3.50;3.50;3.25
72467;PMS3003;60626;43.582;1.470;2022-09-03T07:09:04;7.00;5.75;5.00
72467;PMS3003;60626;43.582;1.470;2022-09-03T07:11:32;5.25;5.25;5.00
72467;PMS3003;60626;43.582;1.470;2022-09-03T07:14:01;8.00;8.00;6.25
72467;PMS3003;60626;43.582;1.470;2022-09-03T07:16:31;9.25;9.00;7.00
72467;PMS3003;60626;43.582;1.470;2022-09-03T07:19:03;6.25;6.25;5.25
72467;PMS3003;60626;43.582;1.470;2022-09-03T07:21:32;6.50;6.00;5.00
72467;PMS3003;60626;43.582;1.470;2022-09-03T07:24:02;8.50;8.25;6.00
72467;PMS3003;60626;43.582;1.470;2022-09-03T07:26:37;9.50;8.75;6.25
72467;PMS3003;60626;43.582;1.470;2022-09-03T07:29:09;11.50;10.00;7.00
72467;PMS3003;60626;43.582;1.470;2022-09-03T07:31:37;8.75;8.75;7.00
72467;PMS3003;60626;43.582;1.470;2022-09-03T07:34:07;11.50;6.75;5.50
72467;PMS3003;60626;43.582;1.470;2022-09-03T07:36:39;9.50;7.25;5.50
72467;PMS3003;60626;43.582;1.470;2022-09-03T07:39:14;7.00;7.00;6.00
72467;PMS3003;60626;43.582;1.470;2022-09-03T07:41:43;6.00;6.00;5.00
72467;PMS3003;60626;43.582;1.470;2022-09-03T07:44:14;7.75;6.25;5.00
72467;PMS3003;60626;43.582;1.470;2022-09-03T07:46:45;5.25;5.25;5.00
72467;PMS3003;60626;43.582;1.470;2022-09-03T07:49:13;7.25;5.75;4.50
72467;PMS3003;60626;43.582;1.470;2022-09-03T07:51:40;8.50;8.50;5.75
72467;PMS3003;60626;43.582;1.470;2022-09-03T07:54:07;5.25;5.25;4.00
72467;PMS3003;60626;43.582;1.470;2022-09-03T07:56:37;6.00;6.00;5.00
72467;PMS3003;60626;43.582;1.470;2022-09-03T07:59:05;7.50;6.25;5.00
72467;PMS3003;60626;43.582;1.470;2022-09-03T08:01:33;7.00;5.75;4.75
72467;PMS3003;60626;43.582;1.470;2022-09-03T08:04:01;7.75;5.25;5.00
72467;PMS3003;60626;43.582;1.470;2022-09-03T08:06:29;7.00;7.00;5.25
72467;PMS3003;60626;43.582;1.470;2022-09-03T08:08:58;6.25;6.00;5.25
72467;PMS3003;60626;43.582;1.470;2022-09-03T08:11:31;6.50;5.00;4.25
72467;PMS3003;60626;43.582;1.470;2022-09-03T08:14:01;5.25;5.25;4.00
72467;PMS3003;60626;43.582;1.470;2022-09-03T08:16:36;6.00;6.00;5.00
72467;PMS3003;60626;43.582;1.470;2022-09-03T08:19:04;3.50;3.50;3.25
72467;PMS3003;60626;43.582;1.470;2022-09-03T08:21:32;8.00;5.00;4.00
72467;PMS3003;60626;43.582;1.470;2022-09-03T08:24:00;5.00;5.00;4.00
72467;PMS3003;60626;43.582;1.470;2022-09-03T08:26:34;5.50;5.00;4.50
72467;PMS3003;60626;43.582;1.470;2022-09-03T08:29:02;7.25;6.25;5.75
72467;PMS3003;60626;43.582;1.470;2022-09-03T08:31:30;6.00;6.00;5.00
72467;PMS3003;60626;43.582;1.470;2022-09-03T08:33:58;6.00;4.25;4.00
72467;PMS3003;60626;43.582;1.470;2022-09-03T08:36:35;6.25;5.00;4.00
72467;PMS3003;60626;43.582;1.470;2022-09-03T08:39:05;5.00;5.00;4.00
72467;PMS3003;60626;43.582;1.470;2022-09-03T08:47:01;5.75;5.75;4.00
72467;PMS3003;60626;43.582;1.470;2022-09-03T08:54:49;4.00;4.00;4.00
72467;PMS3003;60626;43.582;1.470;2022-09-03T08:57:19;4.00;4.00;3.25
72467;PMS3003;60626;43.582;1.470;2022-09-03T08:59:52;5.00;5.00;4.00
72467;PMS3003;60626;43.582;1.470;2022-09-03T09:02:24;4.00;4.00;3.00
72467;PMS3003;60626;43.582;1.470;2022-09-03T09:05:02;3.00;3.00;3.00
72467;PMS3003;60626;43.582;1.470;2022-09-03T09:07:49;4.00;4.00;4.00
72467;PMS3003;60626;43.582;1.470;2022-09-03T09:10:36;4.75;4.00;3.50
72467;PMS3003;60626;43.582;1.470;2022-09-03T09:21:41;5.50;4.50;3.75
72467;PMS3003;60626;43.582;1.470;2022-09-03T09:24:32;4.25;4.25;4.25
72467;PMS3003;60626;43.582;1.470;2022-09-03T09:27:05;6.00;4.25;4.00
72467;PMS3003;60626;43.582;1.470;2022-09-03T09:29:35;5.00;4.25;3.50
72467;PMS3003;60626;43.582;1.470;2022-09-03T09:32:06;3.25;3.25;3.00
72467;PMS3003;60626;43.582;1.470;2022-09-03T09:34:36;8.00;6.00;5.00
72467;PMS3003;60626;43.582;1.470;2022-09-03T09:37:05;5.00;5.00;4.00
72467;PMS3003;60626;43.582;1.470;2022-09-03T09:39:36;4.25;4.25;3.25
72467;PMS3003;60626;43.582;1.470;2022-09-03T09:42:10;3.75;3.25;3.00
72467;PMS3003;60626;43.582;1.470;2022-09-03T09:44:38;4.00;4.00;3.50
72467;PMS3003;60626;43.582;1.470;2022-09-03T09:47:26;6.25;4.00;3.25
72467;PMS3003;60626;43.582;1.470;2022-09-03T09:49:57;5.50;4.00;4.00
72467;PMS3003;60626;43.582;1.470;2022-09-03T09:52:27;6.00;4.25;4.00
72467;PMS3003;60626;43.582;1.470;2022-09-03T09:55:10;4.50;4.50;3.75
72467;PMS3003;60626;43.582;1.470;2022-09-03T09:57:42;4.00;4.00;3.00
72467;PMS3003;60626;43.582;1.470;2022-09-03T10:00:10;6.50;3.25;2.50
72467;PMS3003;60626;43.582;1.470;2022-09-03T10:02:40;4.50;4.50;3.50
72467;PMS3003;60626;43.582;1.470;2022-09-03T10:05:21;6.25;4.75;4.00
72467;PMS3003;60626;43.582;1.470;2022-09-03T10:08:00;6.00;6.00;4.50
72467;PMS3003;60626;43.582;1.470;2022-09-03T10:10:50;7.50;6.25;5.00
72467;PMS3003;60626;43.582;1.470;2022-09-03T10:13:18;5.75;5.00;4.50
72467;PMS3003;60626;43.582;1.470;2022-09-03T10:15:47;5.75;5.75;4.00
72467;PMS3003;60626;43.582;1.470;2022-09-03T10:18:44;6.00;6.00;5.50
72467;PMS3003;60626;43.582;1.470;2022-09-03T10:21:34;7.50;6.25;5.50
72467;PMS3003;60626;43.582;1.470;2022-09-03T10:27:07;6.75;5.00;4.00
72467;PMS3003;60626;43.582;1.470;2022-09-03T10:29:38;7.75;5.00;4.00
72467;PMS3003;60626;43.582;1.470;2022-09-03T10:37:43;4.25;4.25;4.00
72467;PMS3003;60626;43.582;1.470;2022-09-03T10:40:18;6.00;4.50;4.00
72467;PMS3003;60626;43.582;1.470;2022-09-03T10:52:06;4.25;4.25;3.25
72467;PMS3003;60626;43.582;1.470;2022-09-03T10:59:56;5.75;5.75;4.75
72467;PMS3003;60626;43.582;1.470;2022-09-03T11:08:40;6.00;6.00;4.75
72467;PMS3003;60626;43.582;1.470;2022-09-03T11:11:14;6.25;6.25;4.00
72467;PMS3003;60626;43.582;1.470;2022-09-03T11:13:54;5.25;5.25;4.25
72467;PMS3003;60626;43.582;1.470;2022-09-03T11:16:38;5.00;5.00;4.00
72467;PMS3003;60626;43.582;1.470;2022-09-03T11:19:12;4.75;4.75;4.50
72467;PMS3003;60626;43.582;1.470;2022-09-03T11:21:42;5.00;5.00;5.00
72467;PMS3003;60626;43.582;1.470;2022-09-03T11:24:13;4.25;4.25;4.00
72467;PMS3003;60626;43.582;1.470;2022-09-03T11:26:44;7.00;7.00;6.00
72467;PMS3003;60626;43.582;1.470;2022-09-03T11:32:04;6.00;6.00;5.75
72467;PMS3003;60626;43.582;1.470;2022-09-03T11:34:50;6.00;6.00;5.00
72467;PMS3003;60626;43.582;1.470;2022-09-03T11:42:34;5.75;5.75;4.50
72467;PMS3003;60626;43.582;1.470;2022-09-03T11:45:33;5.25;5.25;4.50
72467;PMS3003;60626;43.582;1.470;2022-09-03T11:47:52;6.00;6.00;4.25
72467;PMS3003;60626;43.582;1.470;2022-09-03T11:52:50;5.75;5.75;5.50
72467;PMS3003;60626;43.582;1.470;2022-09-03T11:55:30;6.75;6.00;5.25
72467;PMS3003;60626;43.582;1.470;2022-09-03T11:58:16;7.25;7.25;5.75
72467;PMS3003;60626;43.582;1.470;2022-09-03T12:00:54;7.00;6.50;5.50
72467;PMS3003;60626;43.582;1.470;2022-09-03T12:03:24;7.00;7.00;6.00
72467;PMS3003;60626;43.582;1.470;2022-09-03T12:06:07;6.00;6.00;5.00
72467;PMS3003;60626;43.582;1.470;2022-09-03T12:14:18;7.00;7.00;6.00
72467;PMS3003;60626;43.582;1.470;2022-09-03T12:22:16;5.75;5.75;5.25
72467;PMS3003;60626;43.582;1.470;2022-09-03T12:24:44;8.75;8.75;6.00
72467;PMS3003;60626;43.582;1.470;2022-09-03T12:27:13;8.00;8.00;7.00
72467;PMS3003;60626;43.582;1.470;2022-09-03T12:30:00;7.75;7.75;7.00
72467;PMS3003;60626;43.582;1.470;2022-09-03T12:32:33;8.25;8.00;6.25
72467;PMS3003;60626;43.582;1.470;2022-09-03T12:35:11;8.50;7.00;6.00
72467;PMS3003;60626;43.582;1.470;2022-09-03T12:38:03;9.75;7.75;6.25
72467;PMS3003;60626;43.582;1.470;2022-09-03T12:40:34;5.50;5.50;4.75
72467;PMS3003;60626;43.582;1.470;2022-09-03T12:43:25;6.75;6.75;5.00
72467;PMS3003;60626;43.582;1.470;2022-09-03T12:46:13;7.50;7.50;6.50
72467;PMS3003;60626;43.582;1.470;2022-09-03T12:48:51;6.00;6.00;6.00
72467;PMS3003;60626;43.582;1.470;2022-09-03T12:51:50;9.00;7.25;6.25
72467;PMS3003;60626;43.582;1.470;2022-09-03T12:54:23;7.00;7.00;6.00
72467;PMS3003;60626;43.582;1.470;2022-09-03T12:56:55;10.25;8.25;7.00
72467;PMS3003;60626;43.582;1.470;2022-09-03T12:59:26;7.75;6.75;5.25
72467;PMS3003;60626;43.582;1.470;2022-09-03T13:02:03;10.75;10.25;8.75
72467;PMS3003;60626;43.582;1.470;2022-09-03T13:04:43;7.00;7.00;6.00
72467;PMS3003;60626;43.582;1.470;2022-09-03T13:07:13;7.00;7.00;6.25
72467;PMS3003;60626;43.582;1.470;2022-09-03T13:09:57;8.00;8.00;7.00
72467;PMS3003;60626;43.582;1.470;2022-09-03T13:12:31;7.25;7.25;6.25
72467;PMS3003;60626;43.582;1.470;2022-09-03T13:15:09;10.25;8.25;6.25
72467;PMS3003;60626;43.582;1.470;2022-09-03T13:21:14;8.00;8.00;7.00
72467;PMS3003;60626;43.582;1.470;2022-09-03T13:24:15;8.00;8.00;6.50
72467;PMS3003;60626;43.582;1.470;2022-09-03T13:35:53;7.25;7.25;7.25
72467;PMS3003;60626;43.582;1.470;2022-09-03T13:44:00;8.50;8.50;7.25
72467;PMS3003;60626;43.582;1.470;2022-09-03T13:49:22;9.25;7.75;6.25
72467;PMS3003;60626;43.582;1.470;2022-09-03T13:52:30;7.25;5.75;5.25
72467;PMS3003;60626;43.582;1.470;2022-09-03T13:55:30;12.25;9.50;6.25
72467;PMS3003;60626;43.582;1.470;2022-09-03T14:00:46;8.00;8.00;6.00
72467;PMS3003;60626;43.582;1.470;2022-09-03T14:07:05;8.50;8.50;7.00
72467;PMS3003;60626;43.582;1.470;2022-09-03T14:20:12;6.00;6.00;5.00
72467;PMS3003;60626;43.582;1.470;2022-09-03T14:22:49;6.50;6.00;5.50
72467;PMS3003;60626;43.582;1.470;2022-09-03T14:25:22;7.00;7.00;6.00
72467;PMS3003;60626;43.582;1.470;2022-09-03T14:27:50;7.00;7.00;6.00
72467;PMS3003;60626;43.582;1.470;2022-09-03T14:36:30;6.25;6.25;5.75
72467;PMS3003;60626;43.582;1.470;2022-09-03T14:49:43;6.00;6.00;5.50
72467;PMS3003;60626;43.582;1.470;2022-09-03T15:00:54;7.25;7.25;5.50
72467;PMS3003;60626;43.582;1.470;2022-09-03T15:12:07;8.00;8.00;7.00
72467;PMS3003;60626;43.582;1.470;2022-09-03T15:20:19;8.25;6.50;5.50
72467;PMS3003;60626;43.582;1.470;2022-09-03T15:23:08;7.75;6.50;6.25
72467;PMS3003;60626;43.582;1.470;2022-09-03T15:36:55;6.00;6.00;5.00
72467;PMS3003;60626;43.582;1.470;2022-09-03T15:39:32;7.25;7.25;7.00
72467;PMS3003;60626;43.582;1.470;2022-09-03T15:42:16;6.25;6.25;5.75
72467;PMS3003;60626;43.582;1.470;2022-09-03T15:44:52;8.00;8.00;6.00
72467;PMS3003;60626;43.582;1.470;2022-09-03T15:47:39;10.00;8.25;7.00
72467;PMS3003;60626;43.582;1.470;2022-09-03T15:52:58;8.00;7.25;5.50
72467;PMS3003;60626;43.582;1.470;2022-09-03T15:55:31;7.25;7.25;6.00
72467;PMS3003;60626;43.582;1.470;2022-09-03T15:58:09;6.50;6.50;5.50
72467;PMS3003;60626;43.582;1.470;2022-09-03T16:03:33;7.00;7.00;6.25
72467;PMS3003;60626;43.582;1.470;2022-09-03T16:09:33;7.50;7.50;6.25
72467;PMS3003;60626;43.582;1.470;2022-09-03T16:12:05;6.00;6.00;5.75
72467;PMS3003;60626;43.582;1.470;2022-09-03T16:14:41;5.25;5.25;5.25
72467;PMS3003;60626;43.582;1.470;2022-09-03T16:17:30;7.00;7.00;6.25
72467;PMS3003;60626;43.582;1.470;2022-09-03T16:23:16;6.75;6.75;5.50
72467;PMS3003;60626;43.582;1.470;2022-09-03T16:26:00;7.00;7.00;6.00
72467;PMS3003;60626;43.582;1.470;2022-09-03T16:31:33;8.00;8.00;6.25
72467;PMS3003;60626;43.582;1.470;2022-09-03T16:40:40;7.50;5.25;4.25
72467;PMS3003;60626;43.582;1.470;2022-09-03T16:46:16;9.00;7.75;6.25
72467;PMS3003;60626;43.582;1.470;2022-09-03T16:52:13;6.00;6.00;5.25
72467;PMS3003;60626;43.582;1.470;2022-09-03T16:55:15;4.50;4.50;3.50
72467;PMS3003;60626;43.582;1.470;2022-09-03T17:09:11;6.25;6.25;5.25
72467;PMS3003;60626;43.582;1.470;2022-09-03T17:20:12;7.75;7.75;6.25
72467;PMS3003;60626;43.582;1.470;2022-09-03T17:39:04;6.50;6.50;6.00
72467;PMS3003;60626;43.582;1.470;2022-09-03T17:44:14;7.25;7.25;5.50
72467;PMS3003;60626;43.582;1.470;2022-09-03T17:46:53;7.50;7.00;5.00
72467;PMS3003;60626;43.582;1.470;2022-09-03T17:49:44;10.25;8.25;6.25
72467;PMS3003;60626;43.582;1.470;2022-09-03T17:52:27;5.25;5.25;5.25
72467;PMS3003;60626;43.582;1.470;2022-09-03T17:55:09;6.00;6.00;5.75
72467;PMS3003;60626;43.582;1.470;2022-09-03T17:57:56;7.25;7.25;5.25
72467;PMS3003;60626;43.582;1.470;2022-09-03T18:00:32;7.00;5.75;5.00
72467;PMS3003;60626;43.582;1.470;2022-09-03T18:06:00;7.00;7.00;6.25
72467;PMS3003;60626;43.582;1.470;2022-09-03T18:11:37;7.25;6.00;5.25
72467;PMS3003;60626;43.582;1.470;2022-09-03T18:14:21;6.75;6.75;4.75
72467;PMS3003;60626;43.582;1.470;2022-09-03T18:17:02;8.00;6.25;5.00
72467;PMS3003;60626;43.582;1.470;2022-09-03T18:22:55;7.25;6.75;5.50
72467;PMS3003;60626;43.582;1.470;2022-09-03T18:25:48;6.75;6.75;6.00
72467;PMS3003;60626;43.582;1.470;2022-09-03T18:31:31;7.75;7.00;6.00
72467;PMS3003;60626;43.582;1.470;2022-09-03T18:34:17;7.00;7.00;5.50
72467;PMS3003;60626;43.582;1.470;2022-09-03T18:37:15;7.25;7.25;6.00
72467;PMS3003;60626;43.582;1.470;2022-09-03T18:40:04;6.25;6.25;5.25
72467;PMS3003;60626;43.582;1.470;2022-09-03T18:53:12;6.25;6.25;5.25
72467;PMS3003;60626;43.582;1.470;2022-09-03T18:56:14;6.50;6.50;5.25
72467;PMS3003;60626;43.582;1.470;2022-09-03T19:05:31;7.50;7.50;6.50
72467;PMS3003;60626;43.582;1.470;2022-09-03T19:08:23;8.25;8.25;6.25
72467;PMS3003;60626;43.582;1.470;2022-09-03T19:23:46;13.25;11.25;10.00
72467;PMS3003;60626;43.582;1.470;2022-09-03T19:30:06;15.50;11.25;9.75
72467;PMS3003;60626;43.582;1.470;2022-09-03T19:35:49;10.25;10.25;8.00
72467;PMS3003;60626;43.582;1.470;2022-09-03T19:38:53;10.75;10.75;9.25
72467;PMS3003;60626;43.582;1.470;2022-09-03T19:41:44;17.00;15.75;11.50
72467;PMS3003;60626;43.582;1.470;2022-09-03T19:47:49;13.25;13.25;11.00
72467;PMS3003;60626;43.582;1.470;2022-09-03T19:50:49;14.75;11.75;10.25
72467;PMS3003;60626;43.582;1.470;2022-09-03T19:53:44;13.25;13.25;10.00
72467;PMS3003;60626;43.582;1.470;2022-09-03T19:56:31;14.00;12.75;10.50
72467;PMS3003;60626;43.582;1.470;2022-09-03T19:59:19;16.25;14.75;10.50
72467;PMS3003;60626;43.582;1.470;2022-09-03T20:02:09;11.50;11.50;9.25
72467;PMS3003;60626;43.582;1.470;2022-09-03T20:04:58;15.50;15.50;11.00
72467;PMS3003;60626;43.582;1.470;2022-09-03T20:07:48;13.75;13.25;9.25
72467;PMS3003;60626;43.582;1.470;2022-09-03T20:10:36;19.25;16.25;11.50
72467;PMS3003;60626;43.582;1.470;2022-09-03T20:13:13;12.75;12.50;9.50
72467;PMS3003;60626;43.582;1.470;2022-09-03T20:32:40;13.00;11.00;10.00
72467;PMS3003;60626;43.582;1.470;2022-09-03T20:40:45;14.00;12.50;11.00
72467;PMS3003;60626;43.582;1.470;2022-09-03T20:46:59;13.25;13.25;10.00
72467;PMS3003;60626;43.582;1.470;2022-09-03T20:57:28;18.25;17.50;13.00
72467;PMS3003;60626;43.582;1.470;2022-09-03T21:00:08;18.25;17.50;11.25
72467;PMS3003;60626;43.582;1.470;2022-09-03T21:02:42;16.50;15.00;12.00
72467;PMS3003;60626;43.582;1.470;2022-09-03T21:11:13;13.50;13.50;11.25
72467;PMS3003;60626;43.582;1.470;2022-09-03T21:13:52;16.25;16.25;12.00
72467;PMS3003;60626;43.582;1.470;2022-09-03T21:20:08;12.25;12.00;9.00
72467;PMS3003;60626;43.582;1.470;2022-09-03T21:25:58;14.00;13.00;10.25
72467;PMS3003;60626;43.582;1.470;2022-09-03T21:28:44;13.50;11.75;9.75
72467;PMS3003;60626;43.582;1.470;2022-09-03T21:31:18;14.25;12.75;10.00
72467;PMS3003;60626;43.582;1.470;2022-09-03T21:33:51;12.00;12.00;9.25